createdAt,value
2018-11-21T00:01:58.244Z,4.40
2018-11-21T00:04:27.432Z,4.40
2018-11-21T00:06:56.591Z,4.30
2018-11-21T00:09:25.848Z,4.30
2018-11-21T00:11:54.968Z,4.40
2018-11-21T00:14:24.878Z,4.40
2018-11-21T00:16:54.062Z,4.30
2018-11-21T00:19:23.247Z,4.30
2018-11-21T00:21:52.408Z,4.40
2018-11-21T00:24:21.653Z,4.40
2018-11-21T00:26:50.827Z,4.50
2018-11-21T00:29:20.019Z,4.50
2018-11-21T00:31:49.278Z,4.40
2018-11-21T00:34:18.470Z,4.40
2018-11-21T00:36:47.899Z,4.40
2018-11-21T00:39:17.087Z,4.40
2018-11-21T00:41:46.203Z,4.30
2018-11-21T00:44:15.357Z,4.30
2018-11-21T00:46:44.449Z,4.40
2018-11-21T00:49:13.626Z,4.40
2018-11-21T00:51:42.807Z,4.40
2018-11-21T00:54:12.035Z,4.40
2018-11-21T00:56:41.425Z,4.40
2018-11-21T00:59:10.535Z,4.30
2018-11-21T01:01:39.714Z,4.30
2018-11-21T01:04:08.933Z,4.20
2018-11-21T01:06:38.261Z,4.20
2018-11-21T01:09:07.927Z,4.30
2018-11-21T01:11:37.292Z,4.30
2018-11-21T01:14:06.458Z,4.30
2018-11-21T01:16:35.544Z,4.30
2018-11-21T01:19:04.728Z,4.30
2018-11-21T01:25:15.714Z,4.30
2018-11-21T01:27:44.890Z,4.20
2018-11-21T01:30:14.410Z,4.10
2018-11-21T01:32:43.639Z,4.10
2018-11-21T01:35:12.986Z,4.10
2018-11-21T01:37:42.344Z,4.10
2018-11-21T01:40:12.270Z,4.10
2018-11-21T01:42:41.695Z,4.10
2018-11-21T01:45:10.920Z,4.10
2018-11-21T01:47:40.326Z,4.20
2018-11-21T01:50:09.694Z,4.30
2018-11-21T01:52:38.753Z,4.30
2018-11-21T01:55:07.887Z,4.30
2018-11-21T01:57:37.111Z,4.20
2018-11-21T02:00:08.209Z,4.20
2018-11-21T02:02:37.353Z,4.20
2018-11-21T02:05:06.692Z,4.20
2018-11-21T02:07:35.809Z,4.10
2018-11-21T02:10:05.382Z,4.00
2018-11-21T02:12:34.760Z,4.00
2018-11-21T02:15:03.965Z,4.10
2018-11-21T02:17:33.271Z,4.20
2018-11-21T02:20:03.796Z,4.10
2018-11-21T02:22:33.145Z,4.00
2018-11-21T02:25:02.278Z,4.00
2018-11-21T02:27:31.364Z,4.10
2018-11-21T02:30:00.526Z,4.10
2018-11-21T02:32:29.934Z,4.00
2018-11-21T02:34:59.088Z,4.00
2018-11-21T02:37:28.240Z,3.90
2018-11-21T02:39:57.539Z,3.90
2018-11-21T02:42:26.837Z,4.00
2018-11-21T02:44:56.218Z,4.00
2018-11-21T02:47:25.276Z,3.90
2018-11-21T02:49:54.407Z,3.90
2018-11-21T02:52:23.458Z,3.90
2018-11-21T02:54:52.924Z,3.90
2018-11-21T02:57:23.941Z,3.80
2018-11-21T02:59:55.099Z,3.90
2018-11-21T03:02:24.230Z,3.90
2018-11-21T03:04:53.414Z,3.90
2018-11-21T03:07:22.573Z,3.90
2018-11-21T03:09:51.681Z,3.80
2018-11-21T03:12:20.749Z,3.90
2018-11-21T03:14:50.062Z,3.90
2018-11-21T03:17:19.395Z,3.80
2018-11-21T03:19:48.864Z,3.90
2018-11-21T03:22:18.051Z,3.80
2018-11-21T03:24:47.149Z,3.90
2018-11-21T03:27:16.526Z,3.90
2018-11-21T03:29:45.534Z,3.90
2018-11-21T03:32:14.784Z,3.80
2018-11-21T03:34:44.198Z,3.90
2018-11-21T03:37:13.284Z,3.80
2018-11-21T03:39:42.791Z,3.80
2018-11-21T03:42:12.200Z,3.80
2018-11-21T03:44:43.722Z,3.80
2018-11-21T03:47:12.841Z,3.60
2018-11-21T03:49:43.726Z,3.60
2018-11-21T03:52:12.919Z,3.50
2018-11-21T03:54:42.254Z,3.50
2018-11-21T03:57:11.417Z,3.50
2018-11-21T03:59:40.642Z,3.60
2018-11-21T04:02:09.793Z,3.70
2018-11-21T04:04:38.912Z,3.50
2018-11-21T04:07:08.093Z,3.40
2018-11-21T04:09:37.185Z,3.40
2018-11-21T04:12:06.382Z,3.30
2018-11-21T04:14:35.580Z,3.40
2018-11-21T04:17:04.595Z,3.30
2018-11-21T04:19:33.747Z,3.30
2018-11-21T04:22:02.897Z,3.20
2018-11-21T04:24:32.056Z,3.20
2018-11-21T04:27:01.305Z,3.20
2018-11-21T04:29:30.542Z,3.20
2018-11-21T04:31:59.756Z,3.10
2018-11-21T04:34:29.077Z,3.00
2018-11-21T04:36:58.427Z,3.00
2018-11-21T04:39:27.550Z,3.00
2018-11-21T04:41:56.660Z,2.90
2018-11-21T04:44:25.822Z,3.00
2018-11-21T04:46:54.916Z,3.00
2018-11-21T04:49:24.046Z,2.90
2018-11-21T04:51:53.273Z,2.90
2018-11-21T04:54:22.358Z,2.90
2018-11-21T04:56:51.489Z,2.80
2018-11-21T04:59:20.594Z,2.90
2018-11-21T05:01:49.746Z,3.00
2018-11-21T05:04:18.834Z,2.90
2018-11-21T05:06:47.956Z,2.80
2018-11-21T05:09:19.206Z,2.90
2018-11-21T05:11:48.183Z,2.90
2018-11-21T05:14:17.310Z,2.90
2018-11-21T05:16:46.565Z,2.80
2018-11-21T05:19:15.687Z,2.80
2018-11-21T05:21:44.874Z,2.80
2018-11-21T05:24:14.246Z,2.80
2018-11-21T05:26:43.454Z,2.80
2018-11-21T05:29:12.619Z,2.70
2018-11-21T05:31:41.788Z,2.80
2018-11-21T05:34:11.009Z,2.80
2018-11-21T05:36:40.141Z,2.80
2018-11-21T05:39:10.934Z,2.90
2018-11-21T05:41:40.300Z,2.80
2018-11-21T05:44:09.688Z,2.80
2018-11-21T05:46:38.890Z,2.80
2018-11-21T05:49:08.424Z,2.80
2018-11-21T05:51:38.435Z,2.80
2018-11-21T05:54:07.511Z,2.80
2018-11-21T05:56:36.614Z,2.80
2018-11-21T05:59:05.988Z,2.80
2018-11-21T06:01:35.194Z,2.70
2018-11-21T06:04:04.407Z,2.80
2018-11-21T06:06:33.658Z,2.70
2018-11-21T06:09:02.820Z,2.70
2018-11-21T06:11:32.029Z,2.80
2018-11-21T06:14:01.574Z,2.80
2018-11-21T06:16:30.899Z,2.80
2018-11-21T06:19:00.137Z,2.80
2018-11-21T06:21:29.457Z,2.90
2018-11-21T06:23:58.824Z,2.90
2018-11-21T06:26:28.018Z,2.80
2018-11-21T06:28:57.294Z,2.80
2018-11-21T06:31:26.629Z,2.80
2018-11-21T06:33:55.891Z,2.90
2018-11-21T06:36:25.030Z,2.90
2018-11-21T06:38:54.250Z,3.00
2018-11-21T06:41:23.395Z,3.00
2018-11-21T06:43:52.517Z,3.00
2018-11-21T06:46:21.628Z,3.00
2018-11-21T06:48:50.821Z,3.10
2018-11-21T06:51:20.016Z,3.00
2018-11-21T06:53:49.159Z,3.00
2018-11-21T06:56:18.199Z,3.10
2018-11-21T06:58:47.583Z,3.10
2018-11-21T07:01:16.759Z,3.10
2018-11-21T07:03:45.901Z,3.10
2018-11-21T07:06:15.002Z,3.00
2018-11-21T07:08:44.145Z,3.00
2018-11-21T07:11:13.416Z,3.00
2018-11-21T07:13:42.477Z,3.00
2018-11-21T07:16:13.189Z,3.00
2018-11-21T07:18:42.437Z,3.10
2018-11-21T07:21:11.976Z,3.10
2018-11-21T07:23:41.251Z,3.10
2018-11-21T07:26:10.712Z,3.10
2018-11-21T07:28:39.899Z,3.10
2018-11-21T07:31:09.543Z,3.10
2018-11-21T07:33:38.689Z,3.00
2018-11-21T07:36:07.791Z,3.10
2018-11-21T07:38:36.869Z,3.10
2018-11-21T07:41:05.964Z,3.10
2018-11-21T07:43:35.148Z,3.10
2018-11-21T07:46:04.264Z,3.20
2018-11-21T07:48:33.344Z,3.20
2018-11-21T07:51:02.566Z,3.20
2018-11-21T07:53:31.463Z,3.20
2018-11-21T07:56:00.589Z,3.30
2018-11-21T07:58:29.668Z,3.30
2018-11-21T08:01:23.010Z,3.30
2018-11-21T08:03:56.372Z,3.30
2018-11-21T08:06:31.701Z,3.30
2018-11-21T08:09:23.034Z,3.40
2018-11-21T08:12:10.066Z,3.40
2018-11-21T08:14:57.190Z,3.30
2018-11-21T08:17:38.154Z,3.40
2018-11-21T08:20:29.177Z,3.50
2018-11-21T08:23:27.865Z,3.50
2018-11-21T08:26:16.120Z,3.50
2018-11-21T08:28:45.195Z,3.50
2018-11-21T08:31:14.323Z,3.60
2018-11-21T08:33:43.433Z,3.60
2018-11-21T08:36:12.620Z,3.70
2018-11-21T08:38:41.965Z,3.70
2018-11-21T08:41:11.130Z,3.70
2018-11-21T08:43:42.515Z,3.80
2018-11-21T08:46:12.152Z,3.80
2018-11-21T08:48:41.268Z,3.90
2018-11-21T08:51:10.410Z,4.00
2018-11-21T08:53:39.576Z,4.10
2018-11-21T08:56:08.865Z,4.00
2018-11-21T08:58:38.266Z,3.90
2018-11-21T09:01:07.398Z,4.00
2018-11-21T09:03:36.552Z,4.20
2018-11-21T09:06:05.833Z,4.10
2018-11-21T09:08:35.073Z,4.20
2018-11-21T09:11:04.108Z,4.10
2018-11-21T09:13:33.323Z,4.10
2018-11-21T09:16:02.402Z,4.20
2018-11-21T09:18:31.548Z,4.10
2018-11-21T09:21:00.637Z,4.20
2018-11-21T09:23:29.772Z,4.00
2018-11-21T09:25:59.585Z,4.20
2018-11-21T09:28:28.878Z,4.20
2018-11-21T09:30:57.943Z,4.20
2018-11-21T09:33:27.074Z,4.10
2018-11-21T09:35:56.103Z,4.30
2018-11-21T09:38:25.378Z,4.40
2018-11-21T09:40:54.486Z,4.40
2018-11-21T09:43:23.583Z,4.40
2018-11-21T09:45:52.758Z,4.50
2018-11-21T09:48:21.853Z,4.60
2018-11-21T09:50:51.121Z,4.70
2018-11-21T09:53:20.260Z,4.60
2018-11-21T09:55:49.453Z,4.50
2018-11-21T09:58:18.761Z,4.50
2018-11-21T10:01:24.678Z,4.60
2018-11-21T10:03:53.919Z,4.60
2018-11-21T10:06:25.101Z,4.60
2018-11-21T10:08:57.682Z,4.60
2018-11-21T10:11:27.078Z,4.70
2018-11-21T10:13:56.226Z,4.60
2018-11-21T10:16:25.492Z,4.50
2018-11-21T10:18:56.053Z,4.30
2018-11-21T10:21:26.682Z,4.40
2018-11-21T10:23:55.932Z,4.40
2018-11-21T10:26:25.172Z,4.30
2018-11-21T10:28:54.848Z,4.30
2018-11-21T10:31:24.018Z,4.40
2018-11-21T10:33:53.056Z,4.50
2018-11-21T10:36:22.196Z,4.50
2018-11-21T10:38:51.272Z,4.60
2018-11-21T10:41:20.432Z,4.60
2018-11-21T10:43:49.643Z,4.50
2018-11-21T10:46:18.746Z,4.60
2018-11-21T10:48:47.720Z,4.70
2018-11-21T10:51:17.012Z,4.60
2018-11-21T10:53:46.181Z,4.70
2018-11-21T10:56:15.416Z,4.70
2018-11-21T10:58:44.475Z,4.70
2018-11-21T11:01:31.339Z,4.50
2018-11-21T11:04:14.265Z,4.40
2018-11-21T11:07:01.427Z,4.40
2018-11-21T11:09:58.684Z,4.50
2018-11-21T11:13:05.184Z,4.50
2018-11-21T11:16:02.435Z,4.60
2018-11-21T11:18:39.333Z,4.50
2018-11-21T11:21:26.950Z,4.60
2018-11-21T11:24:14.763Z,4.70
2018-11-21T11:26:51.460Z,4.80
2018-11-21T11:29:38.260Z,4.90
2018-11-21T11:32:26.731Z,4.70
2018-11-21T11:35:27.249Z,4.60
2018-11-21T11:38:13.981Z,4.50
2018-11-21T11:41:20.714Z,4.50
2018-11-21T11:44:05.203Z,4.70
2018-11-21T11:46:54.992Z,4.60
2018-11-21T11:49:49.489Z,4.50
2018-11-21T11:52:37.782Z,4.60
2018-11-21T11:55:27.133Z,4.60
2018-11-21T11:58:17.588Z,4.70
2018-11-21T12:01:00.548Z,4.60
2018-11-21T12:04:06.812Z,4.50
2018-11-21T12:06:46.038Z,4.40
2018-11-21T12:09:46.537Z,4.40
2018-11-21T12:12:46.555Z,4.50
2018-11-21T12:15:42.027Z,4.50
2018-11-21T12:18:30.447Z,4.70
2018-11-21T12:21:17.505Z,4.80
2018-11-21T12:24:02.535Z,4.80
2018-11-21T12:26:51.088Z,4.80
2018-11-21T12:29:41.879Z,4.70
2018-11-21T12:32:26.128Z,4.80
2018-11-21T12:35:24.441Z,4.80
2018-11-21T12:38:11.820Z,4.80
2018-11-21T12:41:11.891Z,4.70
2018-11-21T12:43:58.864Z,4.70
2018-11-21T12:46:47.120Z,4.70
2018-11-21T12:49:34.919Z,4.60
2018-11-21T12:52:11.070Z,4.50
2018-11-21T12:54:49.228Z,4.60
2018-11-21T12:57:36.398Z,4.60
2018-11-21T13:00:38.423Z,4.60
2018-11-21T13:03:26.739Z,4.50
2018-11-21T13:06:05.735Z,4.60
2018-11-21T13:08:57.009Z,4.60
2018-11-21T13:11:51.059Z,4.60
2018-11-21T13:14:37.291Z,4.50
2018-11-21T13:17:24.361Z,4.60
2018-11-21T13:20:21.460Z,4.60
2018-11-21T13:23:09.716Z,4.60
2018-11-21T13:26:03.907Z,4.70
2018-11-21T13:28:50.876Z,4.70
2018-11-21T13:31:31.827Z,4.70
2018-11-21T13:34:22.902Z,4.70
2018-11-21T13:37:17.212Z,4.80
2018-11-21T13:40:13.225Z,4.70
2018-11-21T13:43:04.303Z,4.70
2018-11-21T13:45:58.536Z,4.70
2018-11-21T13:48:55.649Z,4.90
2018-11-21T13:51:47.511Z,5.00
2018-11-21T13:54:24.330Z,4.90
2018-11-21T13:56:53.533Z,4.90
2018-11-21T13:59:22.514Z,5.00
2018-11-21T14:01:55.354Z,5.10
2018-11-21T14:04:24.279Z,4.90
2018-11-21T14:06:53.353Z,4.80
2018-11-21T14:09:23.436Z,4.80
2018-11-21T14:11:52.541Z,4.80
2018-11-21T14:14:21.745Z,4.90
2018-11-21T14:16:51.038Z,5.00
2018-11-21T14:19:20.116Z,5.10
2018-11-21T14:21:49.881Z,5.10
2018-11-21T14:24:18.339Z,5.10
2018-11-21T14:26:47.672Z,4.90
2018-11-21T14:29:16.783Z,4.90
2018-11-21T14:31:46.253Z,4.80
2018-11-21T14:34:15.369Z,5.00
2018-11-21T14:36:44.441Z,4.90
2018-11-21T14:39:14.407Z,4.90
2018-11-21T14:41:44.430Z,4.90
2018-11-21T14:44:13.616Z,4.90
2018-11-21T14:46:44.327Z,4.80
2018-11-21T14:49:13.608Z,4.70
2018-11-21T14:51:42.734Z,4.70
2018-11-21T14:54:11.920Z,4.70
2018-11-21T14:56:41.219Z,4.60
2018-11-21T14:59:10.469Z,4.60
2018-11-21T15:01:39.647Z,4.60
2018-11-21T15:04:08.872Z,4.70
2018-11-21T15:06:38.937Z,4.70
2018-11-21T15:09:11.880Z,4.70
2018-11-21T15:11:41.748Z,4.60
2018-11-21T15:14:11.289Z,4.50
2018-11-21T15:16:40.507Z,4.40
2018-11-21T15:19:09.507Z,4.50
2018-11-21T15:21:38.654Z,4.40
2018-11-21T15:24:07.728Z,4.30
2018-11-21T15:26:36.775Z,4.40
2018-11-21T15:29:08.005Z,4.40
2018-11-21T15:31:37.057Z,4.40
2018-11-21T15:34:06.195Z,4.50
2018-11-21T15:36:35.284Z,4.30
2018-11-21T15:39:06.452Z,4.30
2018-11-21T15:41:35.571Z,4.40
2018-11-21T15:44:04.739Z,4.40
2018-11-21T15:46:33.853Z,4.50
2018-11-21T15:49:02.931Z,4.40
2018-11-21T15:51:32.330Z,4.40
2018-11-21T15:54:02.625Z,4.40
2018-11-21T15:56:31.817Z,4.40
2018-11-21T15:59:00.951Z,4.40
2018-11-21T16:01:30.086Z,4.50
2018-11-21T16:03:59.426Z,4.40
2018-11-21T16:06:28.489Z,4.40
2018-11-21T16:08:57.649Z,4.40
2018-11-21T16:11:26.818Z,4.40
2018-11-21T16:13:56.031Z,4.40
2018-11-21T16:16:25.110Z,4.40
2018-11-21T16:18:54.266Z,4.40
2018-11-21T16:21:23.413Z,4.30
2018-11-21T16:23:52.773Z,4.40
2018-11-21T16:26:22.050Z,4.30
2018-11-21T16:28:51.145Z,4.30
2018-11-21T16:31:20.334Z,4.30
2018-11-21T16:33:49.514Z,4.30
2018-11-21T16:36:26.922Z,4.30
2018-11-21T16:38:48.062Z,4.30
2018-11-21T16:41:17.416Z,4.30
2018-11-21T16:43:46.490Z,4.30
2018-11-21T16:46:15.515Z,4.20
2018-11-21T16:48:44.663Z,4.30
2018-11-21T16:51:13.683Z,4.20
2018-11-21T16:53:42.866Z,4.20
2018-11-21T16:56:12.197Z,4.10
2018-11-21T16:58:42.334Z,4.10
2018-11-21T17:01:11.415Z,4.10
2018-11-21T17:03:40.447Z,4.10
2018-11-21T17:06:09.561Z,4.20
2018-11-21T17:08:38.784Z,4.10
2018-11-21T17:11:07.967Z,4.10
2018-11-21T17:13:38.018Z,4.10
2018-11-21T17:16:07.902Z,4.00
2018-11-21T17:18:37.816Z,4.10
2018-11-21T17:21:08.854Z,4.20
2018-11-21T17:23:38.156Z,4.20
2018-11-21T17:26:07.309Z,4.10
2018-11-21T17:28:36.465Z,4.10
2018-11-21T17:31:05.594Z,4.00
2018-11-21T17:33:34.743Z,4.00
2018-11-21T17:36:04.046Z,4.00
2018-11-21T17:38:33.644Z,4.00
2018-11-21T17:41:02.126Z,4.00
2018-11-21T17:43:31.276Z,4.10
2018-11-21T17:46:04.140Z,4.10
2018-11-21T17:48:29.650Z,4.10
2018-11-21T17:50:58.907Z,3.90
2018-11-21T17:53:28.079Z,3.90
2018-11-21T17:55:57.231Z,3.90
2018-11-21T17:58:26.401Z,3.90
2018-11-21T18:00:55.553Z,3.90
2018-11-21T18:03:24.615Z,3.90
2018-11-21T18:05:53.895Z,4.00
2018-11-21T18:08:23.078Z,4.00
2018-11-21T18:10:52.062Z,4.00
2018-11-21T18:13:21.123Z,4.00
2018-11-21T18:15:51.179Z,4.00
2018-11-21T18:18:20.368Z,3.90
2018-11-21T18:20:49.557Z,3.80
2018-11-21T18:23:18.597Z,3.80
2018-11-21T18:25:48.006Z,3.80
2018-11-21T18:28:17.091Z,3.80
2018-11-21T18:30:46.463Z,3.80
2018-11-21T18:33:15.593Z,3.80
2018-11-21T18:35:44.948Z,3.90
2018-11-21T18:38:14.083Z,3.90
2018-11-21T18:40:43.333Z,3.90
2018-11-21T18:43:12.403Z,3.90
2018-11-21T18:45:43.635Z,3.90
2018-11-21T18:48:13.189Z,3.90
2018-11-21T18:50:42.262Z,3.80
2018-11-21T18:53:12.003Z,3.80
2018-11-21T18:55:46.760Z,3.80
2018-11-21T18:58:45.681Z,3.80
2018-11-21T19:01:14.870Z,3.90
2018-11-21T19:03:44.046Z,3.90
2018-11-21T19:06:13.218Z,3.90
2018-11-21T19:08:43.662Z,3.90
2018-11-21T19:11:12.758Z,3.80
2018-11-21T19:13:41.980Z,3.80
2018-11-21T19:16:11.205Z,3.80
2018-11-21T19:18:40.367Z,3.90
2018-11-21T19:21:09.527Z,3.90
2018-11-21T19:23:38.697Z,3.90
2018-11-21T19:26:07.793Z,3.90
2018-11-21T19:28:36.970Z,3.90
2018-11-21T19:31:06.562Z,3.90
2018-11-21T19:33:35.745Z,3.90
2018-11-21T19:36:05.009Z,3.90
2018-11-21T19:38:34.198Z,3.90
2018-11-21T19:41:03.376Z,3.80
2018-11-21T19:43:32.553Z,3.90
2018-11-21T19:46:01.700Z,3.80
2018-11-21T19:48:31.034Z,3.80
2018-11-21T19:51:00.149Z,3.90
2018-11-21T19:53:29.202Z,3.90
2018-11-21T19:55:58.276Z,3.90
2018-11-21T19:58:27.421Z,3.90
2018-11-21T20:00:56.551Z,3.90
2018-11-21T20:03:25.640Z,3.90
2018-11-21T20:05:55.115Z,3.90
2018-11-21T20:08:24.214Z,3.80
2018-11-21T20:10:53.409Z,3.80
2018-11-21T20:13:22.872Z,3.80
2018-11-21T20:15:52.030Z,3.70
2018-11-21T20:18:21.244Z,3.80
2018-11-21T20:20:50.322Z,3.90
2018-11-21T20:23:19.451Z,3.80
2018-11-21T20:25:48.824Z,3.70
2018-11-21T20:28:17.911Z,3.70
2018-11-21T20:30:47.056Z,3.70
2018-11-21T20:33:16.221Z,3.70
2018-11-21T20:35:46.751Z,3.70
2018-11-21T20:38:15.876Z,3.80
2018-11-21T20:40:45.014Z,3.80
2018-11-21T20:43:14.368Z,3.80
2018-11-21T20:45:43.462Z,3.80
2018-11-21T20:48:12.498Z,3.90
2018-11-21T20:50:41.640Z,3.80
2018-11-21T20:53:10.781Z,3.80
2018-11-21T20:55:40.862Z,3.80
2018-11-21T20:58:09.962Z,3.90
2018-11-21T21:00:39.069Z,3.80
2018-11-21T21:05:37.520Z,3.90
2018-11-21T21:08:06.887Z,3.80
2018-11-21T21:10:43.911Z,3.90
2018-11-21T21:13:13.802Z,3.90
2018-11-21T21:15:43.066Z,3.90
2018-11-21T21:18:14.143Z,4.00
2018-11-21T21:20:43.306Z,4.00
2018-11-21T21:23:12.475Z,3.90
2018-11-21T21:25:41.722Z,3.90
2018-11-21T21:28:10.785Z,3.90
2018-11-21T21:30:39.949Z,3.90
2018-11-21T21:33:09.311Z,3.90
2018-11-21T21:35:38.392Z,3.90
2018-11-21T21:38:07.935Z,3.90
2018-11-21T21:40:37.048Z,3.90
2018-11-21T21:43:06.318Z,4.00
2018-11-21T21:45:35.506Z,3.90
2018-11-21T21:48:04.771Z,3.80
2018-11-21T21:50:34.827Z,3.90
2018-11-21T21:53:03.983Z,3.90
2018-11-21T21:55:33.350Z,3.90
2018-11-21T21:58:02.513Z,3.90
2018-11-21T22:00:31.589Z,3.80
2018-11-21T22:03:01.470Z,3.90
2018-11-21T22:05:31.117Z,3.90
2018-11-21T22:08:00.376Z,3.90
2018-11-21T22:10:29.522Z,3.90
2018-11-21T22:12:58.680Z,3.80
2018-11-21T22:15:31.825Z,3.80
2018-11-21T22:18:02.717Z,3.90
2018-11-21T22:20:31.754Z,3.90
2018-11-21T22:23:00.808Z,3.80
2018-11-21T22:25:29.932Z,3.90
2018-11-21T22:27:59.231Z,3.90
2018-11-21T22:30:28.338Z,3.80
2018-11-21T22:32:58.393Z,3.80
2018-11-21T22:35:29.214Z,3.90
2018-11-21T22:37:58.360Z,3.90
2018-11-21T22:40:27.772Z,3.90
2018-11-21T22:42:56.937Z,3.90
2018-11-21T22:45:26.044Z,3.90
2018-11-21T22:47:55.056Z,3.90
2018-11-21T22:50:25.342Z,3.80
2018-11-21T22:52:54.659Z,3.90
2018-11-21T22:55:23.993Z,3.80
2018-11-21T22:57:53.906Z,3.80
2018-11-21T23:00:39.153Z,3.80
2018-11-21T23:03:08.596Z,3.80
2018-11-21T23:05:37.944Z,3.80
2018-11-21T23:08:07.250Z,3.80
2018-11-21T23:10:36.626Z,3.80
2018-11-21T23:13:05.910Z,3.80
2018-11-21T23:15:35.175Z,3.80
2018-11-21T23:18:04.468Z,3.70
2018-11-21T23:20:33.564Z,3.80
2018-11-21T23:23:02.652Z,3.80
2018-11-21T23:25:31.786Z,3.80
2018-11-21T23:28:00.980Z,3.80
2018-11-21T23:30:30.056Z,3.80
2018-11-21T23:32:59.203Z,3.80
2018-11-21T23:35:28.550Z,3.70
2018-11-21T23:37:57.704Z,3.70
2018-11-21T23:40:26.811Z,3.80
2018-11-21T23:42:56.065Z,3.80
2018-11-21T23:45:25.284Z,3.80
2018-11-21T23:47:54.442Z,3.80
2018-11-21T23:50:23.499Z,3.80
2018-11-21T23:52:52.621Z,3.80
2018-11-21T23:55:21.616Z,3.90
2018-11-21T23:57:50.703Z,3.80
